sensor_id;sensor_type;location;lat;lon;timestamp;P1;durP1;ratioP1;P2;durP2;ratioP2
52878;SDS011;38747;53.140;6.498;2022-08-21T00:00:34;8.63;;;4.03;;
52878;SDS011;38747;53.140;6.498;2022-08-21T00:03:03;8.23;;;3.92;;
52878;SDS011;38747;53.140;6.498;2022-08-21T00:05:30;9.32;;;3.85;;
52878;SDS011;38747;53.140;6.498;2022-08-21T00:07:58;8.50;;;4.03;;
52878;SDS011;38747;53.140;6.498;2022-08-21T00:10:24;7.70;;;3.93;;
52878;SDS011;38747;53.140;6.498;2022-08-21T00:12:50;9.10;;;3.40;;
52878;SDS011;38747;53.140;6.498;2022-08-21T00:15:18;10.32;;;3.95;;
52878;SDS011;38747;53.140;6.498;2022-08-21T00:17:47;9.48;;;3.40;;
52878;SDS011;38747;53.140;6.498;2022-08-21T00:20:14;8.30;;;3.50;;
52878;SDS011;38747;53.140;6.498;2022-08-21T00:22:41;8.93;;;3.70;;
52878;SDS011;38747;53.140;6.498;2022-08-21T00:25:08;8.63;;;3.38;;
52878;SDS011;38747;53.140;6.498;2022-08-21T00:27:34;9.73;;;3.67;;
52878;SDS011;38747;53.140;6.498;2022-08-21T00:30:00;7.68;;;3.45;;
52878;SDS011;38747;53.140;6.498;2022-08-21T00:32:27;10.00;;;4.07;;
52878;SDS011;38747;53.140;6.498;2022-08-21T00:34:53;9.00;;;4.18;;
52878;SDS011;38747;53.140;6.498;2022-08-21T00:37:18;8.27;;;3.85;;
52878;SDS011;38747;53.140;6.498;2022-08-21T00:39:44;9.43;;;4.13;;
52878;SDS011;38747;53.140;6.498;2022-08-21T00:42:11;8.68;;;4.20;;
52878;SDS011;38747;53.140;6.498;2022-08-21T00:44:40;11.20;;;4.28;;
52878;SDS011;38747;53.140;6.498;2022-08-21T00:47:10;8.13;;;4.13;;
52878;SDS011;38747;53.140;6.498;2022-08-21T00:49:37;9.85;;;4.40;;
52878;SDS011;38747;53.140;6.498;2022-08-21T00:52:03;8.30;;;3.83;;
52878;SDS011;38747;53.140;6.498;2022-08-21T00:54:32;8.60;;;4.05;;
52878;SDS011;38747;53.140;6.498;2022-08-21T00:57:00;9.65;;;4.10;;
52878;SDS011;38747;53.140;6.498;2022-08-21T00:59:32;7.75;;;3.72;;
52878;SDS011;38747;53.140;6.498;2022-08-21T01:02:01;7.95;;;4.07;;
52878;SDS011;38747;53.140;6.498;2022-08-21T01:04:28;8.77;;;3.83;;
52878;SDS011;38747;53.140;6.498;2022-08-21T01:06:54;8.38;;;4.13;;
52878;SDS011;38747;53.140;6.498;2022-08-21T01:09:20;8.27;;;3.60;;
52878;SDS011;38747;53.140;6.498;2022-08-21T01:11:45;8.65;;;3.22;;
52878;SDS011;38747;53.140;6.498;2022-08-21T01:14:12;7.97;;;3.60;;
52878;SDS011;38747;53.140;6.498;2022-08-21T01:16:43;10.60;;;4.10;;
52878;SDS011;38747;53.140;6.498;2022-08-21T01:19:11;9.10;;;4.13;;
52878;SDS011;38747;53.140;6.498;2022-08-21T01:21:37;8.38;;;4.25;;
52878;SDS011;38747;53.140;6.498;2022-08-21T01:24:03;8.80;;;4.40;;
52878;SDS011;38747;53.140;6.498;2022-08-21T01:26:32;8.27;;;3.97;;
52878;SDS011;38747;53.140;6.498;2022-08-21T01:29:02;8.27;;;4.43;;
52878;SDS011;38747;53.140;6.498;2022-08-21T01:31:31;8.77;;;4.20;;
52878;SDS011;38747;53.140;6.498;2022-08-21T01:33:58;9.13;;;4.13;;
52878;SDS011;38747;53.140;6.498;2022-08-21T01:36:24;10.07;;;3.88;;
52878;SDS011;38747;53.140;6.498;2022-08-21T01:38:50;7.97;;;4.20;;
52878;SDS011;38747;53.140;6.498;2022-08-21T01:41:16;7.78;;;4.00;;
52878;SDS011;38747;53.140;6.498;2022-08-21T01:43:42;11.00;;;4.50;;
52878;SDS011;38747;53.140;6.498;2022-08-21T01:46:09;8.38;;;4.40;;
52878;SDS011;38747;53.140;6.498;2022-08-21T01:48:35;11.77;;;4.60;;
52878;SDS011;38747;53.140;6.498;2022-08-21T01:51:01;7.40;;;4.30;;
52878;SDS011;38747;53.140;6.498;2022-08-21T01:53:26;9.43;;;4.20;;
52878;SDS011;38747;53.140;6.498;2022-08-21T01:55:52;9.40;;;4.90;;
52878;SDS011;38747;53.140;6.498;2022-08-21T01:58:18;9.10;;;4.53;;
52878;SDS011;38747;53.140;6.498;2022-08-21T02:00:44;10.77;;;4.70;;
52878;SDS011;38747;53.140;6.498;2022-08-21T02:03:09;10.07;;;4.72;;
52878;SDS011;38747;53.140;6.498;2022-08-21T02:05:35;7.67;;;4.07;;
52878;SDS011;38747;53.140;6.498;2022-08-21T02:08:00;8.33;;;4.10;;
52878;SDS011;38747;53.140;6.498;2022-08-21T02:10:28;8.40;;;4.40;;
52878;SDS011;38747;53.140;6.498;2022-08-21T02:12:56;9.55;;;4.82;;
52878;SDS011;38747;53.140;6.498;2022-08-21T02:15:22;9.00;;;4.65;;
52878;SDS011;38747;53.140;6.498;2022-08-21T02:17:50;8.00;;;4.80;;
52878;SDS011;38747;53.140;6.498;2022-08-21T02:20:19;10.73;;;4.60;;
52878;SDS011;38747;53.140;6.498;2022-08-21T02:22:48;9.45;;;4.65;;
52878;SDS011;38747;53.140;6.498;2022-08-21T02:25:15;10.15;;;4.85;;
52878;SDS011;38747;53.140;6.498;2022-08-21T02:27:43;9.35;;;4.85;;
52878;SDS011;38747;53.140;6.498;2022-08-21T02:30:13;10.30;;;5.47;;
52878;SDS011;38747;53.140;6.498;2022-08-21T02:32:42;8.97;;;4.70;;
52878;SDS011;38747;53.140;6.498;2022-08-21T02:35:08;8.43;;;5.18;;
52878;SDS011;38747;53.140;6.498;2022-08-21T02:37:52;8.98;;;5.18;;
52878;SDS011;38747;53.140;6.498;2022-08-21T02:40:22;11.83;;;5.70;;
52878;SDS011;38747;53.140;6.498;2022-08-21T02:42:51;12.82;;;6.15;;
52878;SDS011;38747;53.140;6.498;2022-08-21T02:45:17;11.05;;;5.50;;
52878;SDS011;38747;53.140;6.498;2022-08-21T02:47:50;10.10;;;5.30;;
52878;SDS011;38747;53.140;6.498;2022-08-21T02:50:18;10.63;;;6.10;;
52878;SDS011;38747;53.140;6.498;2022-08-21T02:52:47;10.27;;;6.32;;
52878;SDS011;38747;53.140;6.498;2022-08-21T02:55:14;12.40;;;6.22;;
52878;SDS011;38747;53.140;6.498;2022-08-21T02:57:40;11.75;;;6.25;;
52878;SDS011;38747;53.140;6.498;2022-08-21T03:00:06;12.10;;;6.90;;
52878;SDS011;38747;53.140;6.498;2022-08-21T03:02:33;13.32;;;6.35;;
52878;SDS011;38747;53.140;6.498;2022-08-21T03:04:59;11.50;;;6.55;;
52878;SDS011;38747;53.140;6.498;2022-08-21T03:07:25;14.38;;;6.38;;
52878;SDS011;38747;53.140;6.498;2022-08-21T03:09:51;14.27;;;6.53;;
52878;SDS011;38747;53.140;6.498;2022-08-21T03:12:17;11.23;;;6.50;;
52878;SDS011;38747;53.140;6.498;2022-08-21T03:14:42;12.67;;;6.87;;
52878;SDS011;38747;53.140;6.498;2022-08-21T03:17:08;14.00;;;6.68;;
52878;SDS011;38747;53.140;6.498;2022-08-21T03:19:33;14.47;;;6.67;;
52878;SDS011;38747;53.140;6.498;2022-08-21T03:21:59;11.55;;;6.68;;
52878;SDS011;38747;53.140;6.498;2022-08-21T03:24:25;12.50;;;7.00;;
52878;SDS011;38747;53.140;6.498;2022-08-21T03:26:51;11.45;;;6.80;;
52878;SDS011;38747;53.140;6.498;2022-08-21T03:29:16;12.97;;;6.77;;
52878;SDS011;38747;53.140;6.498;2022-08-21T03:31:43;13.82;;;6.68;;
52878;SDS011;38747;53.140;6.498;2022-08-21T03:34:08;12.75;;;7.22;;
52878;SDS011;38747;53.140;6.498;2022-08-21T03:36:35;13.82;;;7.53;;
52878;SDS011;38747;53.140;6.498;2022-08-21T03:39:00;11.53;;;6.80;;
52878;SDS011;38747;53.140;6.498;2022-08-21T03:41:26;13.20;;;7.10;;
52878;SDS011;38747;53.140;6.498;2022-08-21T03:43:51;13.18;;;7.10;;
52878;SDS011;38747;53.140;6.498;2022-08-21T03:46:17;12.93;;;7.43;;
52878;SDS011;38747;53.140;6.498;2022-08-21T03:48:42;13.45;;;6.47;;
52878;SDS011;38747;53.140;6.498;2022-08-21T03:51:09;11.57;;;6.90;;
52878;SDS011;38747;53.140;6.498;2022-08-21T03:53:35;13.50;;;7.25;;
52878;SDS011;38747;53.140;6.498;2022-08-21T03:56:01;12.98;;;6.88;;
52878;SDS011;38747;53.140;6.498;2022-08-21T03:58:28;12.93;;;6.57;;
52878;SDS011;38747;53.140;6.498;2022-08-21T04:00:57;13.88;;;6.80;;
52878;SDS011;38747;53.140;6.498;2022-08-21T04:03:25;11.75;;;7.22;;
52878;SDS011;38747;53.140;6.498;2022-08-21T04:05:51;13.60;;;6.93;;
52878;SDS011;38747;53.140;6.498;2022-08-21T04:08:18;13.18;;;7.28;;
52878;SDS011;38747;53.140;6.498;2022-08-21T04:10:44;11.67;;;6.40;;
52878;SDS011;38747;53.140;6.498;2022-08-21T04:13:12;13.07;;;7.50;;
52878;SDS011;38747;53.140;6.498;2022-08-21T04:15:39;11.15;;;6.63;;
52878;SDS011;38747;53.140;6.498;2022-08-21T04:18:05;15.95;;;7.05;;
52878;SDS011;38747;53.140;6.498;2022-08-21T04:20:33;14.27;;;7.07;;
52878;SDS011;38747;53.140;6.498;2022-08-21T04:22:59;13.73;;;7.17;;
52878;SDS011;38747;53.140;6.498;2022-08-21T04:25:26;13.98;;;7.50;;
52878;SDS011;38747;53.140;6.498;2022-08-21T04:27:52;12.05;;;6.90;;
52878;SDS011;38747;53.140;6.498;2022-08-21T04:30:18;12.93;;;7.35;;
52878;SDS011;38747;53.140;6.498;2022-08-21T04:32:48;12.83;;;7.40;;
52878;SDS011;38747;53.140;6.498;2022-08-21T04:35:15;16.30;;;7.57;;
52878;SDS011;38747;53.140;6.498;2022-08-21T04:37:44;13.13;;;7.13;;
52878;SDS011;38747;53.140;6.498;2022-08-21T04:40:11;13.57;;;6.97;;
52878;SDS011;38747;53.140;6.498;2022-08-21T04:42:44;14.60;;;7.43;;
52878;SDS011;38747;53.140;6.498;2022-08-21T04:45:15;14.88;;;7.20;;
52878;SDS011;38747;53.140;6.498;2022-08-21T04:47:54;12.32;;;6.55;;
52878;SDS011;38747;53.140;6.498;2022-08-21T04:50:25;13.40;;;6.93;;
52878;SDS011;38747;53.140;6.498;2022-08-21T04:52:56;13.48;;;6.97;;
52878;SDS011;38747;53.140;6.498;2022-08-21T04:55:23;13.33;;;7.03;;
52878;SDS011;38747;53.140;6.498;2022-08-21T04:57:49;13.82;;;6.78;;
52878;SDS011;38747;53.140;6.498;2022-08-21T05:00:19;15.90;;;7.30;;
52878;SDS011;38747;53.140;6.498;2022-08-21T05:02:46;12.93;;;6.50;;
52878;SDS011;38747;53.140;6.498;2022-08-21T05:05:13;14.38;;;6.65;;
52878;SDS011;38747;53.140;6.498;2022-08-21T05:07:41;10.03;;;6.63;;
52878;SDS011;38747;53.140;6.498;2022-08-21T05:10:08;15.98;;;6.88;;
52878;SDS011;38747;53.140;6.498;2022-08-21T05:12:35;14.32;;;7.07;;
52878;SDS011;38747;53.140;6.498;2022-08-21T05:15:01;12.38;;;6.80;;
52878;SDS011;38747;53.140;6.498;2022-08-21T05:17:27;13.10;;;6.75;;
52878;SDS011;38747;53.140;6.498;2022-08-21T05:19:53;11.93;;;6.60;;
52878;SDS011;38747;53.140;6.498;2022-08-21T05:22:20;13.35;;;6.78;;
52878;SDS011;38747;53.140;6.498;2022-08-21T05:24:47;13.23;;;6.18;;
52878;SDS011;38747;53.140;6.498;2022-08-21T05:27:13;12.87;;;5.97;;
52878;SDS011;38747;53.140;6.498;2022-08-21T05:29:38;13.90;;;6.20;;
52878;SDS011;38747;53.140;6.498;2022-08-21T05:32:10;11.17;;;6.03;;
52878;SDS011;38747;53.140;6.498;2022-08-21T05:34:37;12.90;;;6.35;;
52878;SDS011;38747;53.140;6.498;2022-08-21T05:37:03;14.77;;;5.73;;
52878;SDS011;38747;53.140;6.498;2022-08-21T05:39:29;13.10;;;5.68;;
52878;SDS011;38747;53.140;6.498;2022-08-21T05:41:55;14.77;;;6.10;;
52878;SDS011;38747;53.140;6.498;2022-08-21T05:44:21;13.10;;;5.43;;
52878;SDS011;38747;53.140;6.498;2022-08-21T05:46:47;12.15;;;6.07;;
52878;SDS011;38747;53.140;6.498;2022-08-21T05:49:12;13.67;;;5.30;;
52878;SDS011;38747;53.140;6.498;2022-08-21T05:51:41;15.33;;;6.23;;
52878;SDS011;38747;53.140;6.498;2022-08-21T05:54:07;10.90;;;5.55;;
52878;SDS011;38747;53.140;6.498;2022-08-21T05:56:33;14.53;;;5.73;;
52878;SDS011;38747;53.140;6.498;2022-08-21T05:58:58;10.63;;;6.00;;
52878;SDS011;38747;53.140;6.498;2022-08-21T06:01:24;16.53;;;5.80;;
52878;SDS011;38747;53.140;6.498;2022-08-21T06:03:50;10.10;;;5.60;;
52878;SDS011;38747;53.140;6.498;2022-08-21T06:06:16;14.30;;;5.60;;
52878;SDS011;38747;53.140;6.498;2022-08-21T06:08:41;11.53;;;5.53;;
52878;SDS011;38747;53.140;6.498;2022-08-21T06:11:08;13.98;;;5.68;;
52878;SDS011;38747;53.140;6.498;2022-08-21T06:13:34;14.07;;;4.82;;
52878;SDS011;38747;53.140;6.498;2022-08-21T06:16:01;12.53;;;5.10;;
52878;SDS011;38747;53.140;6.498;2022-08-21T06:18:29;11.82;;;5.53;;
52878;SDS011;38747;53.140;6.498;2022-08-21T06:20:54;13.07;;;5.38;;
52878;SDS011;38747;53.140;6.498;2022-08-21T06:23:20;12.67;;;4.93;;
52878;SDS011;38747;53.140;6.498;2022-08-21T06:25:45;10.70;;;4.60;;
52878;SDS011;38747;53.140;6.498;2022-08-21T06:28:11;11.90;;;4.80;;
52878;SDS011;38747;53.140;6.498;2022-08-21T06:30:38;10.20;;;4.60;;
52878;SDS011;38747;53.140;6.498;2022-08-21T06:33:04;11.20;;;4.07;;
52878;SDS011;38747;53.140;6.498;2022-08-21T06:35:31;10.82;;;4.53;;
52878;SDS011;38747;53.140;6.498;2022-08-21T06:37:57;9.43;;;3.90;;
52878;SDS011;38747;53.140;6.498;2022-08-21T06:40:23;12.67;;;4.10;;
52878;SDS011;38747;53.140;6.498;2022-08-21T06:42:49;9.43;;;3.63;;
52878;SDS011;38747;53.140;6.498;2022-08-21T06:45:15;10.33;;;3.80;;
52878;SDS011;38747;53.140;6.498;2022-08-21T06:47:40;9.93;;;3.60;;
52878;SDS011;38747;53.140;6.498;2022-08-21T06:50:06;11.50;;;3.60;;
52878;SDS011;38747;53.140;6.498;2022-08-21T06:52:33;10.57;;;3.63;;
52878;SDS011;38747;53.140;6.498;2022-08-21T06:55:03;11.35;;;3.53;;
52878;SDS011;38747;53.140;6.498;2022-08-21T06:57:30;9.90;;;3.33;;
52878;SDS011;38747;53.140;6.498;2022-08-21T06:59:56;8.30;;;3.13;;
52878;SDS011;38747;53.140;6.498;2022-08-21T07:02:22;8.43;;;3.10;;
52878;SDS011;38747;53.140;6.498;2022-08-21T07:04:47;11.13;;;3.55;;
52878;SDS011;38747;53.140;6.498;2022-08-21T07:07:13;10.83;;;3.00;;
52878;SDS011;38747;53.140;6.498;2022-08-21T07:09:38;8.15;;;2.30;;
52878;SDS011;38747;53.140;6.498;2022-08-21T07:12:04;9.37;;;2.83;;
52878;SDS011;38747;53.140;6.498;2022-08-21T07:14:30;11.07;;;2.50;;
52878;SDS011;38747;53.140;6.498;2022-08-21T07:16:56;10.60;;;2.87;;
52878;SDS011;38747;53.140;6.498;2022-08-21T07:19:22;8.73;;;2.60;;
52878;SDS011;38747;53.140;6.498;2022-08-21T07:21:47;9.23;;;2.70;;
52878;SDS011;38747;53.140;6.498;2022-08-21T07:24:13;10.45;;;2.60;;
52878;SDS011;38747;53.140;6.498;2022-08-21T07:26:38;8.43;;;2.20;;
52878;SDS011;38747;53.140;6.498;2022-08-21T07:29:05;8.90;;;2.53;;
52878;SDS011;38747;53.140;6.498;2022-08-21T07:31:30;12.65;;;2.70;;
52878;SDS011;38747;53.140;6.498;2022-08-21T07:33:56;12.10;;;2.87;;
52878;SDS011;38747;53.140;6.498;2022-08-21T07:36:22;11.10;;;2.85;;
52878;SDS011;38747;53.140;6.498;2022-08-21T07:38:47;8.93;;;2.43;;
52878;SDS011;38747;53.140;6.498;2022-08-21T07:41:14;10.70;;;2.60;;
52878;SDS011;38747;53.140;6.498;2022-08-21T07:43:42;11.20;;;2.30;;
52878;SDS011;38747;53.140;6.498;2022-08-21T07:46:09;12.55;;;2.38;;
52878;SDS011;38747;53.140;6.498;2022-08-21T07:48:35;11.80;;;2.60;;
52878;SDS011;38747;53.140;6.498;2022-08-21T07:51:02;8.68;;;2.38;;
52878;SDS011;38747;53.140;6.498;2022-08-21T07:53:32;11.57;;;2.50;;
52878;SDS011;38747;53.140;6.498;2022-08-21T07:55:59;8.67;;;1.90;;
52878;SDS011;38747;53.140;6.498;2022-08-21T07:58:25;10.52;;;2.60;;
52878;SDS011;38747;53.140;6.498;2022-08-21T08:00:51;8.50;;;2.13;;
52878;SDS011;38747;53.140;6.498;2022-08-21T08:03:16;9.82;;;2.08;;
52878;SDS011;38747;53.140;6.498;2022-08-21T08:05:42;10.03;;;2.50;;
52878;SDS011;38747;53.140;6.498;2022-08-21T08:08:08;11.50;;;2.60;;
52878;SDS011;38747;53.140;6.498;2022-08-21T08:10:33;10.63;;;1.90;;
52878;SDS011;38747;53.140;6.498;2022-08-21T08:13:00;6.82;;;2.20;;
52878;SDS011;38747;53.140;6.498;2022-08-21T08:15:26;7.85;;;1.77;;
52878;SDS011;38747;53.140;6.498;2022-08-21T08:17:52;10.37;;;2.30;;
52878;SDS011;38747;53.140;6.498;2022-08-21T08:20:19;7.80;;;1.70;;
52878;SDS011;38747;53.140;6.498;2022-08-21T08:22:46;10.13;;;2.00;;
52878;SDS011;38747;53.140;6.498;2022-08-21T08:25:13;8.10;;;1.83;;
52878;SDS011;38747;53.140;6.498;2022-08-21T08:27:39;11.23;;;2.85;;
52878;SDS011;38747;53.140;6.498;2022-08-21T08:30:06;10.57;;;2.50;;
52878;SDS011;38747;53.140;6.498;2022-08-21T08:32:33;10.30;;;2.30;;
52878;SDS011;38747;53.140;6.498;2022-08-21T08:34:59;11.10;;;2.65;;
52878;SDS011;38747;53.140;6.498;2022-08-21T08:37:25;8.70;;;2.28;;
52878;SDS011;38747;53.140;6.498;2022-08-21T08:39:51;11.37;;;2.43;;
52878;SDS011;38747;53.140;6.498;2022-08-21T08:44:45;10.43;;;2.47;;
52878;SDS011;38747;53.140;6.498;2022-08-21T08:47:13;10.70;;;2.50;;
52878;SDS011;38747;53.140;6.498;2022-08-21T08:52:30;8.18;;;2.40;;
52878;SDS011;38747;53.140;6.498;2022-08-21T08:55:08;11.63;;;2.90;;
52878;SDS011;38747;53.140;6.498;2022-08-21T08:57:59;12.25;;;2.72;;
52878;SDS011;38747;53.140;6.498;2022-08-21T09:00:25;9.65;;;2.17;;
52878;SDS011;38747;53.140;6.498;2022-08-21T09:02:53;13.82;;;3.03;;
52878;SDS011;38747;53.140;6.498;2022-08-21T09:05:28;10.07;;;2.67;;
52878;SDS011;38747;53.140;6.498;2022-08-21T09:11:05;12.07;;;2.72;;
52878;SDS011;38747;53.140;6.498;2022-08-21T09:29:14;9.00;;;2.47;;
52878;SDS011;38747;53.140;6.498;2022-08-21T09:31:45;12.52;;;2.70;;
52878;SDS011;38747;53.140;6.498;2022-08-21T09:34:11;8.93;;;2.63;;
52878;SDS011;38747;53.140;6.498;2022-08-21T09:36:45;10.00;;;2.60;;
52878;SDS011;38747;53.140;6.498;2022-08-21T09:39:21;10.35;;;2.50;;
52878;SDS011;38747;53.140;6.498;2022-08-21T09:41:59;11.02;;;2.35;;
52878;SDS011;38747;53.140;6.498;2022-08-21T09:44:34;8.43;;;1.98;;
52878;SDS011;38747;53.140;6.498;2022-08-21T09:47:05;9.98;;;2.28;;
52878;SDS011;38747;53.140;6.498;2022-08-21T09:49:36;8.53;;;2.30;;
52878;SDS011;38747;53.140;6.498;2022-08-21T09:52:03;8.90;;;1.90;;
52878;SDS011;38747;53.140;6.498;2022-08-21T09:54:40;11.48;;;2.40;;
52878;SDS011;38747;53.140;6.498;2022-08-21T09:57:12;10.35;;;2.40;;
52878;SDS011;38747;53.140;6.498;2022-08-21T10:00:47;10.80;;;2.07;;
52878;SDS011;38747;53.140;6.498;2022-08-21T10:03:40;10.65;;;2.65;;
52878;SDS011;38747;53.140;6.498;2022-08-21T10:06:21;9.30;;;2.60;;
52878;SDS011;38747;53.140;6.498;2022-08-21T10:08:45;9.32;;;2.40;;
52878;SDS011;38747;53.140;6.498;2022-08-21T10:11:15;14.40;;;3.00;;
52878;SDS011;38747;53.140;6.498;2022-08-21T10:19:14;10.30;;;2.40;;
52878;SDS011;38747;53.140;6.498;2022-08-21T10:22:00;8.70;;;2.50;;
52878;SDS011;38747;53.140;6.498;2022-08-21T10:35:43;7.80;;;1.90;;
52878;SDS011;38747;53.140;6.498;2022-08-21T10:43:31;8.63;;;2.23;;
52878;SDS011;38747;53.140;6.498;2022-08-21T10:46:17;6.57;;;1.85;;
52878;SDS011;38747;53.140;6.498;2022-08-21T10:49:25;7.40;;;2.35;;
52878;SDS011;38747;53.140;6.498;2022-08-21T10:55:18;9.93;;;2.10;;
52878;SDS011;38747;53.140;6.498;2022-08-21T11:00:51;9.10;;;2.20;;
52878;SDS011;38747;53.140;6.498;2022-08-21T11:06:09;7.20;;;2.17;;
52878;SDS011;38747;53.140;6.498;2022-08-21T11:08:44;7.03;;;1.90;;
52878;SDS011;38747;53.140;6.498;2022-08-21T11:13:42;10.15;;;3.03;;
52878;SDS011;38747;53.140;6.498;2022-08-21T11:16:16;9.10;;;2.40;;
52878;SDS011;38747;53.140;6.498;2022-08-21T11:19:02;10.25;;;3.08;;
52878;SDS011;38747;53.140;6.498;2022-08-21T11:21:57;10.20;;;2.97;;
52878;SDS011;38747;53.140;6.498;2022-08-21T11:30:13;8.53;;;2.70;;
52878;SDS011;38747;53.140;6.498;2022-08-21T11:38:25;8.02;;;2.67;;
52878;SDS011;38747;53.140;6.498;2022-08-21T11:44:06;9.52;;;2.67;;
52878;SDS011;38747;53.140;6.498;2022-08-21T11:49:17;9.13;;;2.42;;
52878;SDS011;38747;53.140;6.498;2022-08-21T11:54:49;7.57;;;2.23;;
52878;SDS011;38747;53.140;6.498;2022-08-21T11:57:27;8.35;;;2.40;;
52878;SDS011;38747;53.140;6.498;2022-08-21T12:00:04;8.73;;;2.28;;
52878;SDS011;38747;53.140;6.498;2022-08-21T12:02:36;7.25;;;2.00;;
52878;SDS011;38747;53.140;6.498;2022-08-21T12:05:07;9.35;;;2.00;;
52878;SDS011;38747;53.140;6.498;2022-08-21T12:07:40;8.03;;;2.13;;
52878;SDS011;38747;53.140;6.498;2022-08-21T12:10:10;8.75;;;2.03;;
52878;SDS011;38747;53.140;6.498;2022-08-21T12:12:42;7.38;;;2.00;;
52878;SDS011;38747;53.140;6.498;2022-08-21T12:17:51;9.13;;;2.17;;
52878;SDS011;38747;53.140;6.498;2022-08-21T12:20:22;10.20;;;2.43;;
52878;SDS011;38747;53.140;6.498;2022-08-21T12:23:02;8.32;;;2.20;;
52878;SDS011;38747;53.140;6.498;2022-08-21T12:25:38;6.78;;;1.83;;
52878;SDS011;38747;53.140;6.498;2022-08-21T12:28:08;9.20;;;2.10;;
52878;SDS011;38747;53.140;6.498;2022-08-21T12:30:38;9.50;;;2.00;;
52878;SDS011;38747;53.140;6.498;2022-08-21T12:36:01;11.00;;;2.45;;
52878;SDS011;38747;53.140;6.498;2022-08-21T12:38:45;9.38;;;2.30;;
52878;SDS011;38747;53.140;6.498;2022-08-21T12:41:17;7.18;;;2.17;;
52878;SDS011;38747;53.140;6.498;2022-08-21T12:43:47;6.68;;;1.92;;
52878;SDS011;38747;53.140;6.498;2022-08-21T12:46:26;9.30;;;2.33;;
52878;SDS011;38747;53.140;6.498;2022-08-21T12:49:26;9.07;;;1.80;;
52878;SDS011;38747;53.140;6.498;2022-08-21T12:52:07;5.88;;;1.90;;
52878;SDS011;38747;53.140;6.498;2022-08-21T12:54:42;6.97;;;1.88;;
52878;SDS011;38747;53.140;6.498;2022-08-21T12:57:09;8.80;;;2.08;;
52878;SDS011;38747;53.140;6.498;2022-08-21T12:59:56;6.97;;;2.30;;
52878;SDS011;38747;53.140;6.498;2022-08-21T13:02:25;6.63;;;1.80;;
52878;SDS011;38747;53.140;6.498;2022-08-21T13:04:58;8.52;;;1.73;;
52878;SDS011;38747;53.140;6.498;2022-08-21T13:07:30;9.40;;;2.15;;
52878;SDS011;38747;53.140;6.498;2022-08-21T13:09:59;7.15;;;2.08;;
52878;SDS011;38747;53.140;6.498;2022-08-21T13:12:30;11.17;;;2.33;;
52878;SDS011;38747;53.140;6.498;2022-08-21T13:14:57;10.52;;;2.03;;
52878;SDS011;38747;53.140;6.498;2022-08-21T13:17:26;6.95;;;1.70;;
52878;SDS011;38747;53.140;6.498;2022-08-21T13:20:20;7.43;;;1.80;;
52878;SDS011;38747;53.140;6.498;2022-08-21T13:22:50;6.68;;;1.77;;
52878;SDS011;38747;53.140;6.498;2022-08-21T13:25:18;10.80;;;2.20;;
52878;SDS011;38747;53.140;6.498;2022-08-21T13:27:57;8.20;;;1.88;;
52878;SDS011;38747;53.140;6.498;2022-08-21T13:30:25;7.07;;;1.90;;
52878;SDS011;38747;53.140;6.498;2022-08-21T13:32:54;7.63;;;2.07;;
52878;SDS011;38747;53.140;6.498;2022-08-21T13:35:24;6.05;;;1.90;;
52878;SDS011;38747;53.140;6.498;2022-08-21T13:40:32;7.47;;;2.00;;
52878;SDS011;38747;53.140;6.498;2022-08-21T13:43:09;5.25;;;1.88;;
52878;SDS011;38747;53.140;6.498;2022-08-21T13:45:37;8.93;;;1.80;;
52878;SDS011;38747;53.140;6.498;2022-08-21T13:48:03;8.30;;;1.90;;
52878;SDS011;38747;53.140;6.498;2022-08-21T13:50:31;5.50;;;1.60;;
52878;SDS011;38747;53.140;6.498;2022-08-21T13:53:01;8.33;;;1.83;;
52878;SDS011;38747;53.140;6.498;2022-08-21T13:55:39;6.13;;;1.63;;
52878;SDS011;38747;53.140;6.498;2022-08-21T13:58:06;8.25;;;1.75;;
52878;SDS011;38747;53.140;6.498;2022-08-21T14:00:34;7.03;;;1.90;;
52878;SDS011;38747;53.140;6.498;2022-08-21T14:03:09;8.32;;;1.80;;
52878;SDS011;38747;53.140;6.498;2022-08-21T14:05:38;7.50;;;1.70;;
52878;SDS011;38747;53.140;6.498;2022-08-21T14:08:10;9.30;;;1.85;;
52878;SDS011;38747;53.140;6.498;2022-08-21T14:10:47;10.00;;;1.90;;
52878;SDS011;38747;53.140;6.498;2022-08-21T14:15:58;6.07;;;1.88;;
52878;SDS011;38747;53.140;6.498;2022-08-21T14:18:27;7.63;;;1.70;;
52878;SDS011;38747;53.140;6.498;2022-08-21T14:21:06;7.28;;;1.50;;
52878;SDS011;38747;53.140;6.498;2022-08-21T14:23:33;6.32;;;1.77;;
52878;SDS011;38747;53.140;6.498;2022-08-21T14:25:59;8.95;;;1.80;;
52878;SDS011;38747;53.140;6.498;2022-08-21T14:28:28;7.03;;;1.80;;
52878;SDS011;38747;53.140;6.498;2022-08-21T14:30:57;6.57;;;1.63;;
52878;SDS011;38747;53.140;6.498;2022-08-21T14:33:27;6.18;;;1.80;;
52878;SDS011;38747;53.140;6.498;2022-08-21T14:35:55;7.32;;;1.58;;
52878;SDS011;38747;53.140;6.498;2022-08-21T14:38:23;6.43;;;1.85;;
52878;SDS011;38747;53.140;6.498;2022-08-21T14:40:54;6.67;;;1.70;;
52878;SDS011;38747;53.140;6.498;2022-08-21T14:43:24;8.50;;;1.83;;
52878;SDS011;38747;53.140;6.498;2022-08-21T14:45:51;7.65;;;1.88;;
52878;SDS011;38747;53.140;6.498;2022-08-21T14:48:17;6.50;;;1.75;;
52878;SDS011;38747;53.140;6.498;2022-08-21T14:50:42;5.47;;;1.60;;
52878;SDS011;38747;53.140;6.498;2022-08-21T14:53:09;9.05;;;2.05;;
52878;SDS011;38747;53.140;6.498;2022-08-21T14:55:36;7.77;;;1.57;;
52878;SDS011;38747;53.140;6.498;2022-08-21T14:58:21;6.22;;;1.67;;
52878;SDS011;38747;53.140;6.498;2022-08-21T15:00:49;6.40;;;1.45;;
52878;SDS011;38747;53.140;6.498;2022-08-21T15:03:17;6.78;;;1.45;;
52878;SDS011;38747;53.140;6.498;2022-08-21T15:05:43;5.53;;;1.60;;
52878;SDS011;38747;53.140;6.498;2022-08-21T15:08:09;6.60;;;1.87;;
52878;SDS011;38747;53.140;6.498;2022-08-21T15:10:35;6.43;;;1.75;;
52878;SDS011;38747;53.140;6.498;2022-08-21T15:13:01;5.57;;;1.63;;
52878;SDS011;38747;53.140;6.498;2022-08-21T15:15:29;6.82;;;1.50;;
52878;SDS011;38747;53.140;6.498;2022-08-21T15:17:57;6.82;;;1.58;;
52878;SDS011;38747;53.140;6.498;2022-08-21T15:20:22;7.50;;;1.60;;
52878;SDS011;38747;53.140;6.498;2022-08-21T15:22:48;5.88;;;1.38;;
52878;SDS011;38747;53.140;6.498;2022-08-21T15:25:13;6.90;;;1.70;;
52878;SDS011;38747;53.140;6.498;2022-08-21T15:27:39;8.02;;;1.63;;
52878;SDS011;38747;53.140;6.498;2022-08-21T15:30:05;5.97;;;1.60;;
52878;SDS011;38747;53.140;6.498;2022-08-21T15:32:31;8.15;;;2.05;;
52878;SDS011;38747;53.140;6.498;2022-08-21T15:34:57;5.77;;;1.60;;
52878;SDS011;38747;53.140;6.498;2022-08-21T15:37:23;7.27;;;1.70;;
52878;SDS011;38747;53.140;6.498;2022-08-21T15:39:50;6.80;;;1.73;;
52878;SDS011;38747;53.140;6.498;2022-08-21T15:42:17;6.10;;;1.65;;
52878;SDS011;38747;53.140;6.498;2022-08-21T15:44:43;6.38;;;1.45;;
52878;SDS011;38747;53.140;6.498;2022-08-21T15:47:11;8.77;;;1.85;;
52878;SDS011;38747;53.140;6.498;2022-08-21T15:49:39;6.67;;;1.70;;
52878;SDS011;38747;53.140;6.498;2022-08-21T15:52:09;8.68;;;1.70;;
52878;SDS011;38747;53.140;6.498;2022-08-21T15:54:40;8.40;;;1.95;;
52878;SDS011;38747;53.140;6.498;2022-08-21T15:57:06;7.93;;;1.45;;
52878;SDS011;38747;53.140;6.498;2022-08-21T15:59:39;6.78;;;2.00;;
52878;SDS011;38747;53.140;6.498;2022-08-21T16:02:12;6.00;;;1.47;;
52878;SDS011;38747;53.140;6.498;2022-08-21T16:04:43;7.65;;;1.70;;
52878;SDS011;38747;53.140;6.498;2022-08-21T16:07:09;8.93;;;1.73;;
52878;SDS011;38747;53.140;6.498;2022-08-21T16:09:35;7.97;;;1.80;;
52878;SDS011;38747;53.140;6.498;2022-08-21T16:12:01;7.80;;;1.95;;
52878;SDS011;38747;53.140;6.498;2022-08-21T16:14:28;5.38;;;1.33;;
52878;SDS011;38747;53.140;6.498;2022-08-21T16:16:55;8.52;;;1.75;;
52878;SDS011;38747;53.140;6.498;2022-08-21T16:19:21;10.50;;;2.03;;